Stornoway, United Kingdom
Current Conditions -  °F | °C
As of 11:50 PM on Monday 20 Oct 2014 (Local Time) from EGPO Reporting Station
Rain Showers Rain Showers  
Wind Chill: 54°   Ceiling: 1200
Heat Index: 54°   Visibility: 6mi
Dew Point: 50°   Wind: 23mph
Humidity: 88%   Direction: 190°S
Pressure: 29.09"   Gusts: NA
Location:  58.22°N, 6.39°W
Report Text: EGPO 202250Z AUTO 19020KT 9000 -SHRA BKN012/// 12/10 Q0985
Loading
Personal Weather Stations






























Interactive Weather Map
Tropical Storm Tracking
New forecast layout! Learn more

10-Day Weather Forecast

Advertisements
Track Severe Weather on mobile